Terminal Aerodrome Forecast
Issued by NWS

Home | Current Version | Previous Version | Text Only | Print | Product List | Glossary On
Versions: 1 2 3 4 5 6 7 8 9 10 11 12 13 14 15 16
000
FTUS45 KTFX 012300 RRA
TAFHLN
TAF
KHLN 012341Z 0200/0224 25022G30KT P6SM SCT060 SCT100
     FM020200 27012KT P6SM SCT080 BKN150
     FM020700 29007KT P6SM BKN080
     FM021500 31008KT P6SM VCSH SCT035 BKN060 PROB30 0221/0224
      -SHRA=

USA.gov is the U.S. government's official web portal to all federal, state and local government web resources and services.